createdAt,value
2019-06-04T00:01:19.847Z,55.40
2019-06-04T00:02:24.634Z,55.40
2019-06-04T00:03:46.260Z,55.40
2019-06-04T00:05:07.935Z,55.60
2019-06-04T00:06:29.477Z,55.40
2019-06-04T00:07:51.456Z,55.40
2019-06-04T00:09:13.036Z,55.50
2019-06-04T00:10:34.671Z,55.50
2019-06-04T00:11:56.076Z,55.40
2019-06-04T00:13:17.824Z,55.40
2019-06-04T00:14:39.649Z,55.50
2019-06-04T00:16:01.465Z,55.50
2019-06-04T00:17:22.802Z,55.50
2019-06-04T00:18:44.132Z,55.50
2019-06-04T00:20:07.363Z,55.50
2019-06-04T00:21:29.139Z,56.70
2019-06-04T00:22:50.556Z,55.50
2019-06-04T00:24:12.255Z,55.70
2019-06-04T00:25:33.727Z,55.70
2019-06-04T00:26:55.191Z,55.60
2019-06-04T00:28:16.519Z,55.80
2019-06-04T00:29:38.126Z,55.60
2019-06-04T00:31:00.794Z,55.70
2019-06-04T00:32:22.670Z,55.70
2019-06-04T00:33:44.435Z,55.80
2019-06-04T00:35:06.927Z,55.70
2019-06-04T00:36:28.318Z,55.60
2019-06-04T00:37:49.871Z,55.50
2019-06-04T00:39:11.573Z,55.60
2019-06-04T00:40:33.199Z,55.60
2019-06-04T00:41:54.583Z,55.70
2019-06-04T00:43:16.231Z,55.70
2019-06-04T00:44:37.849Z,55.70
2019-06-04T00:45:59.355Z,55.70
2019-06-04T00:47:20.916Z,55.80
2019-06-04T00:48:42.183Z,55.20
2019-06-04T00:50:05.152Z,55.80
2019-06-04T00:51:26.731Z,55.80
2019-06-04T00:52:48.240Z,55.80
2019-06-04T00:54:09.772Z,55.80
2019-06-04T00:55:31.465Z,55.80
2019-06-04T00:56:52.984Z,55.80
2019-06-04T00:58:14.495Z,55.80
2019-06-04T00:59:35.769Z,55.80
2019-06-04T01:00:57.708Z,55.90
2019-06-04T01:02:19.427Z,55.80
2019-06-04T01:03:40.752Z,55.80
2019-06-04T01:05:04.151Z,55.80
2019-06-04T01:06:24.999Z,55.90
2019-06-04T01:07:46.587Z,55.80
2019-06-04T01:09:08.154Z,55.90
2019-06-04T01:10:29.528Z,55.90
2019-06-04T01:11:51.277Z,55.90
2019-06-04T01:13:12.447Z,55.90
2019-06-04T01:14:34.019Z,55.90
2019-06-04T01:15:55.655Z,56.10
2019-06-04T01:17:17.411Z,55.80
2019-06-04T01:18:39.067Z,55.80
2019-06-04T01:20:00.691Z,55.90
2019-06-04T01:21:22.320Z,56.00
2019-06-04T01:22:44.100Z,56.00
2019-06-04T01:24:05.675Z,56.00
2019-06-04T01:25:27.291Z,56.00
2019-06-04T01:26:48.916Z,55.90
2019-06-04T01:28:10.609Z,56.00
2019-06-04T01:29:32.104Z,56.00
2019-06-04T01:30:53.675Z,57.20
2019-06-04T01:32:21.327Z,56.10
2019-06-04T01:33:40.836Z,56.10
2019-06-04T01:35:02.474Z,56.00
2019-06-04T01:36:24.083Z,56.10
2019-06-04T01:37:45.499Z,56.10
2019-06-04T01:39:06.987Z,56.20
2019-06-04T01:40:28.389Z,56.10
2019-06-04T01:41:49.767Z,56.10
2019-06-04T01:43:11.528Z,56.20
2019-06-04T01:44:33.519Z,56.10
2019-06-04T01:45:54.988Z,56.10
2019-06-04T01:47:16.497Z,56.20
2019-06-04T01:48:38.090Z,56.10
2019-06-04T01:49:59.551Z,56.10
2019-06-04T01:51:20.954Z,56.30
2019-06-04T01:52:42.227Z,56.10
2019-06-04T01:54:04.363Z,56.10
2019-06-04T01:55:26.037Z,56.20
2019-06-04T01:56:47.883Z,56.00
2019-06-04T01:58:12.102Z,56.10
2019-06-04T01:59:32.922Z,56.20
2019-06-04T02:00:54.283Z,56.20
2019-06-04T02:02:32.552Z,56.10
2019-06-04T02:03:38.933Z,56.20
2019-06-04T02:05:00.619Z,56.10
2019-06-04T02:06:21.926Z,56.10
2019-06-04T02:07:43.439Z,56.20
2019-06-04T02:09:05.909Z,56.20
2019-06-04T02:10:27.298Z,56.10
2019-06-04T02:11:48.603Z,56.20
2019-06-04T02:13:11.111Z,56.20
2019-06-04T02:14:32.883Z,56.20
2019-06-04T02:15:54.556Z,57.00
2019-06-04T02:17:16.104Z,56.20
2019-06-04T02:18:37.500Z,56.20
2019-06-04T02:19:59.190Z,56.20
2019-06-04T02:21:20.876Z,56.20
2019-06-04T02:22:42.566Z,56.40
2019-06-04T02:24:05.713Z,56.10
2019-06-04T02:25:27.308Z,56.20
2019-06-04T02:26:49.019Z,56.20
2019-06-04T02:28:10.540Z,56.20
2019-06-04T02:29:32.104Z,56.20
2019-06-04T02:30:53.948Z,56.20
2019-06-04T02:32:15.628Z,56.10
2019-06-04T02:33:36.945Z,56.60
2019-06-04T02:34:58.288Z,56.30
2019-06-04T02:36:19.909Z,56.30
2019-06-04T02:37:41.619Z,56.30
2019-06-04T02:39:05.791Z,56.30
2019-06-04T02:40:48.697Z,56.40
2019-06-04T02:42:11.358Z,56.40
2019-06-04T02:43:32.959Z,56.40
2019-06-04T02:44:54.246Z,56.40
2019-06-04T02:46:16.350Z,56.50
2019-06-04T02:47:38.259Z,56.50
2019-06-04T02:48:59.884Z,56.50
2019-06-04T02:50:21.405Z,56.40
2019-06-04T02:51:43.003Z,56.30
2019-06-04T02:53:04.777Z,56.40
2019-06-04T02:54:26.433Z,56.40
2019-06-04T02:55:51.813Z,57.60
2019-06-04T02:57:13.875Z,57.60
2019-06-04T02:58:35.532Z,56.40
2019-06-04T02:59:56.935Z,56.40
2019-06-04T03:01:18.580Z,56.30
2019-06-04T03:02:41.098Z,56.40
2019-06-04T03:04:02.975Z,56.50
2019-06-04T03:05:24.542Z,56.50
2019-06-04T03:06:45.707Z,56.50
2019-06-04T03:08:08.870Z,56.50
2019-06-04T03:09:30.610Z,56.50
2019-06-04T03:10:53.566Z,56.60
2019-06-04T03:12:15.426Z,56.60
2019-06-04T03:13:37.039Z,56.50
2019-06-04T03:14:58.378Z,56.50
2019-06-04T03:16:20.243Z,56.50
2019-06-04T03:17:41.803Z,56.50
2019-06-04T03:19:03.569Z,56.50
2019-06-04T03:20:24.930Z,56.50
2019-06-04T03:21:46.679Z,56.50
2019-06-04T03:23:08.483Z,56.40
2019-06-04T03:24:29.920Z,56.60
2019-06-04T03:25:51.592Z,56.50
2019-06-04T03:27:13.395Z,56.40
2019-06-04T03:28:34.872Z,56.40
2019-06-04T03:29:56.281Z,56.60
2019-06-04T03:31:22.410Z,56.40
2019-06-04T03:32:40.871Z,56.50
2019-06-04T03:34:02.333Z,56.50
2019-06-04T03:35:23.604Z,56.40
2019-06-04T03:36:45.012Z,56.50
2019-06-04T03:38:06.658Z,56.60
2019-06-04T03:39:28.218Z,56.50
2019-06-04T03:40:49.883Z,56.40
2019-06-04T03:42:11.107Z,56.50
2019-06-04T03:43:32.603Z,56.40
2019-06-04T03:44:54.043Z,57.30
2019-06-04T03:46:15.853Z,56.50
2019-06-04T03:47:37.556Z,56.50
2019-06-04T03:48:59.307Z,56.50
2019-06-04T03:50:20.888Z,56.40
2019-06-04T03:51:42.269Z,56.30
2019-06-04T03:53:03.988Z,56.40
2019-06-04T03:54:25.585Z,56.40
2019-06-04T03:55:48.202Z,57.80
2019-06-04T03:57:09.831Z,56.40
2019-06-04T03:58:31.137Z,56.30
2019-06-04T03:59:52.511Z,56.50
2019-06-04T04:01:13.955Z,56.40
2019-06-04T04:02:35.599Z,56.40
2019-06-04T04:04:07.197Z,56.20
2019-06-04T04:05:20.383Z,56.40
2019-06-04T04:06:41.663Z,56.40
2019-06-04T04:08:03.129Z,56.40
2019-06-04T04:09:24.903Z,56.30
2019-06-04T04:10:46.544Z,56.30
2019-06-04T04:12:08.067Z,56.40
2019-06-04T04:13:29.494Z,56.30
2019-06-04T04:14:51.203Z,56.30
2019-06-04T04:16:12.556Z,56.30
2019-06-04T04:17:34.122Z,56.30
2019-06-04T04:18:55.395Z,56.20
2019-06-04T04:20:16.989Z,56.20
2019-06-04T04:21:38.383Z,56.20
2019-06-04T04:22:59.746Z,56.20
2019-06-04T04:24:21.275Z,56.20
2019-06-04T04:25:42.839Z,56.20
2019-06-04T04:27:04.456Z,56.20
2019-06-04T04:28:26.867Z,56.20
2019-06-04T04:29:48.711Z,56.40
2019-06-04T04:31:10.299Z,56.30
2019-06-04T04:32:31.949Z,56.20
2019-06-04T04:33:53.676Z,56.10
2019-06-04T04:35:15.204Z,56.20
2019-06-04T04:36:36.801Z,56.20
2019-06-04T04:37:58.399Z,56.10
2019-06-04T04:39:20.096Z,55.90
2019-06-04T04:40:41.707Z,56.00
2019-06-04T04:42:03.109Z,55.80
2019-06-04T04:43:24.743Z,55.80
2019-06-04T04:44:46.423Z,55.70
2019-06-04T04:46:08.184Z,55.50
2019-06-04T04:47:29.885Z,55.50
2019-06-04T04:48:51.479Z,55.50
2019-06-04T04:50:13.405Z,55.40
2019-06-04T04:51:34.772Z,55.20
2019-06-04T04:52:55.992Z,55.30
2019-06-04T04:54:17.265Z,55.20
2019-06-04T04:55:38.679Z,55.10
2019-06-04T04:57:00.443Z,55.10
2019-06-04T04:58:22.755Z,55.00
2019-06-04T04:59:44.545Z,55.00
2019-06-04T05:01:05.903Z,54.80
2019-06-04T05:02:28.338Z,54.80
2019-06-04T05:03:50.072Z,54.60
2019-06-04T05:05:11.401Z,55.90
2019-06-04T05:06:33.471Z,54.60
2019-06-04T05:07:55.107Z,54.50
2019-06-04T05:09:16.853Z,54.40
2019-06-04T05:10:38.107Z,54.30
2019-06-04T05:11:59.866Z,54.20
2019-06-04T05:13:22.553Z,54.10
2019-06-04T05:14:44.067Z,54.00
2019-06-04T05:16:05.671Z,54.40
2019-06-04T05:17:27.291Z,53.90
2019-06-04T05:18:48.916Z,54.80
2019-06-04T05:20:10.412Z,53.40
2019-06-04T05:21:34.165Z,53.40
2019-06-04T05:22:55.238Z,53.40
2019-06-04T05:24:17.183Z,53.50
2019-06-04T05:25:38.977Z,53.50
2019-06-04T05:27:00.710Z,53.60
2019-06-04T05:28:22.079Z,53.60
2019-06-04T05:29:43.704Z,53.70
2019-06-04T05:31:05.631Z,54.80
2019-06-04T05:32:28.109Z,53.20
2019-06-04T05:33:49.531Z,53.10
2019-06-04T05:35:10.816Z,53.10
2019-06-04T05:36:32.703Z,52.90
2019-06-04T05:37:54.763Z,52.90
2019-06-04T05:39:16.306Z,52.70
2019-06-04T05:40:37.739Z,52.60
2019-06-04T05:41:59.455Z,52.40
2019-06-04T05:43:22.440Z,52.20
2019-06-04T05:44:43.751Z,52.20
2019-06-04T05:46:05.371Z,52.10
2019-06-04T05:47:26.987Z,51.90
2019-06-04T05:48:48.864Z,51.80
2019-06-04T05:50:10.635Z,51.60
2019-06-04T05:51:33.321Z,51.50
2019-06-04T05:52:54.815Z,52.60
2019-06-04T05:54:16.715Z,51.30
2019-06-04T05:55:39.102Z,51.10
2019-06-04T05:57:00.879Z,51.00
2019-06-04T05:58:22.866Z,50.80
2019-06-04T05:59:44.916Z,50.50
2019-06-04T06:01:06.224Z,50.40
2019-06-04T06:02:28.981Z,50.30
2019-06-04T06:03:50.461Z,49.90
2019-06-04T06:05:23.125Z,50.00
2019-06-04T06:06:35.296Z,50.30
2019-06-04T06:07:56.689Z,50.10
2019-06-04T06:09:18.027Z,50.40
2019-06-04T06:10:39.337Z,51.00
2019-06-04T06:12:01.184Z,50.30
2019-06-04T06:13:23.877Z,50.30
2019-06-04T06:14:45.559Z,50.60
2019-06-04T06:16:07.464Z,50.30
2019-06-04T06:17:30.030Z,49.70
2019-06-04T06:18:51.592Z,49.60
2019-06-04T06:20:12.889Z,49.60
2019-06-04T06:21:34.267Z,49.90
2019-06-04T06:23:10.241Z,49.40
2019-06-04T06:24:18.756Z,49.20
2019-06-04T06:25:41.082Z,49.10
2019-06-04T06:27:02.988Z,48.70
2019-06-04T06:28:26.296Z,49.30
2019-06-04T06:29:49.739Z,49.60
2019-06-04T06:31:11.057Z,49.80
2019-06-04T06:32:32.966Z,50.80
2019-06-04T06:33:54.716Z,51.10
2019-06-04T06:35:16.434Z,52.10
2019-06-04T06:36:37.799Z,52.40
2019-06-04T06:37:59.724Z,52.20
2019-06-04T06:39:21.307Z,51.80
2019-06-04T06:40:42.995Z,51.50
2019-06-04T06:42:05.831Z,51.80
2019-06-04T06:43:27.615Z,51.70
2019-06-04T06:44:49.121Z,51.20
2019-06-04T06:46:10.817Z,51.60
2019-06-04T06:47:33.115Z,52.40
2019-06-04T06:48:54.954Z,52.50
2019-06-04T06:50:16.632Z,52.50
2019-06-04T06:51:38.014Z,52.90
2019-06-04T06:52:59.497Z,53.70
2019-06-04T06:54:20.832Z,52.60
2019-06-04T06:55:42.440Z,51.60
2019-06-04T06:57:04.092Z,51.40
2019-06-04T06:58:30.121Z,52.80
2019-06-04T06:59:48.471Z,52.20
2019-06-04T07:01:10.243Z,52.30
2019-06-04T07:02:32.480Z,52.30
2019-06-04T07:03:55.580Z,51.90
2019-06-04T07:05:17.050Z,52.30
2019-06-04T07:06:38.797Z,52.10
2019-06-04T07:08:00.578Z,52.00
2019-06-04T07:09:21.916Z,52.30
2019-06-04T07:10:43.264Z,52.00
2019-06-04T07:12:05.006Z,51.60
2019-06-04T07:13:28.998Z,50.90
2019-06-04T07:14:50.448Z,51.30
2019-06-04T07:16:12.095Z,51.00
2019-06-04T07:17:35.212Z,51.10
2019-06-04T07:18:56.975Z,51.50
2019-06-04T07:20:18.634Z,51.20
2019-06-04T07:21:40.255Z,52.00
2019-06-04T07:23:02.351Z,52.00
2019-06-04T07:24:24.099Z,52.70
2019-06-04T07:25:45.752Z,52.70
2019-06-04T07:27:07.466Z,52.00
2019-06-04T07:28:30.226Z,52.00
2019-06-04T07:29:52.092Z,51.30
2019-06-04T07:31:14.091Z,51.70
2019-06-04T07:32:36.309Z,52.00
2019-06-04T07:33:57.720Z,52.20
2019-06-04T07:35:19.420Z,52.40
2019-06-04T07:36:40.957Z,53.00
2019-06-04T07:38:02.299Z,53.40
2019-06-04T07:39:23.760Z,53.80
2019-06-04T07:40:45.497Z,53.00
2019-06-04T07:42:06.948Z,52.90
2019-06-04T07:43:28.615Z,53.20
2019-06-04T07:44:50.236Z,53.50
2019-06-04T07:46:11.638Z,53.70
2019-06-04T07:47:33.334Z,53.50
2019-06-04T07:48:54.744Z,52.80
2019-06-04T07:50:16.438Z,52.20
2019-06-04T07:51:38.182Z,52.40
2019-06-04T07:52:59.708Z,52.50
2019-06-04T07:54:21.211Z,53.10
2019-06-04T07:55:43.187Z,53.20
2019-06-04T07:57:04.916Z,53.70
2019-06-04T07:58:26.712Z,53.40
2019-06-04T07:59:48.302Z,52.70
2019-06-04T08:01:09.897Z,51.80
2019-06-04T08:02:32.182Z,51.40
2019-06-04T08:03:54.613Z,51.10
2019-06-04T08:05:15.881Z,51.30
2019-06-04T08:06:49.126Z,51.70
2019-06-04T08:08:00.084Z,51.60
2019-06-04T08:09:21.639Z,51.90
2019-06-04T08:10:43.793Z,52.20
2019-06-04T08:12:05.685Z,52.20
2019-06-04T08:13:27.391Z,51.40
2019-06-04T08:14:51.701Z,51.30
2019-06-04T08:16:12.334Z,51.60
2019-06-04T08:17:33.791Z,51.80
2019-06-04T08:18:55.213Z,51.30
2019-06-04T08:20:16.449Z,52.10
2019-06-04T08:21:46.316Z,52.10
2019-06-04T08:23:00.622Z,51.60
2019-06-04T08:24:21.765Z,51.80
2019-06-04T08:25:44.763Z,52.00
2019-06-04T08:27:07.003Z,52.20
2019-06-04T08:28:28.656Z,52.00
2019-06-04T08:29:49.840Z,51.90
2019-06-04T08:31:11.057Z,51.80
2019-06-04T08:32:34.061Z,52.20
2019-06-04T08:33:55.580Z,53.10
2019-06-04T08:35:17.263Z,52.70
2019-06-04T08:36:38.927Z,52.40
2019-06-04T08:38:00.491Z,52.10
2019-06-04T08:39:22.339Z,52.10
2019-06-04T08:40:44.028Z,52.10
2019-06-04T08:42:05.879Z,51.90
2019-06-04T08:43:27.272Z,52.20
2019-06-04T08:44:59.414Z,52.10
2019-06-04T08:46:11.903Z,52.20
2019-06-04T08:47:33.594Z,51.90
2019-06-04T08:48:54.952Z,51.90
2019-06-04T08:50:17.036Z,52.00
2019-06-04T08:51:39.865Z,52.40
2019-06-04T08:53:01.383Z,52.40
2019-06-04T08:54:22.963Z,52.30
2019-06-04T08:55:46.363Z,52.30
2019-06-04T08:57:07.430Z,52.70
2019-06-04T08:58:29.036Z,52.00
2019-06-04T08:59:50.312Z,52.20
2019-06-04T09:01:12.232Z,52.80
2019-06-04T09:02:33.840Z,52.40
2019-06-04T09:03:55.582Z,52.50
2019-06-04T09:05:16.960Z,52.30
2019-06-04T09:06:39.778Z,52.70
2019-06-04T09:08:02.063Z,52.70
2019-06-04T09:09:23.323Z,52.30
2019-06-04T09:10:47.603Z,52.00
2019-06-04T09:12:09.479Z,52.30
2019-06-04T09:13:30.882Z,52.70
2019-06-04T09:14:52.327Z,52.60
2019-06-04T09:16:14.425Z,52.70
2019-06-04T09:17:40.355Z,52.30
2019-06-04T09:18:58.695Z,52.90
2019-06-04T09:20:20.420Z,53.00
2019-06-04T09:21:42.918Z,52.30
2019-06-04T09:23:06.240Z,52.80
2019-06-04T09:24:27.568Z,52.70
2019-06-04T09:25:50.015Z,53.00
2019-06-04T09:27:11.731Z,52.50
2019-06-04T09:28:33.280Z,52.00
2019-06-04T09:29:55.218Z,52.10
2019-06-04T09:31:26.577Z,52.60
2019-06-04T09:32:39.688Z,52.70
2019-06-04T09:34:01.137Z,53.00
2019-06-04T09:35:23.600Z,52.90
2019-06-04T09:36:45.793Z,51.90
2019-06-04T09:38:10.562Z,52.50
2019-06-04T09:39:30.295Z,52.20
2019-06-04T09:40:52.275Z,52.40
2019-06-04T09:42:14.070Z,51.60
2019-06-04T09:43:35.386Z,50.80
2019-06-04T09:44:56.740Z,51.00
2019-06-04T09:46:18.483Z,51.00
2019-06-04T09:47:41.060Z,51.70
2019-06-04T09:49:02.753Z,51.40
2019-06-04T09:50:24.392Z,51.50
2019-06-04T09:51:46.762Z,51.50
2019-06-04T09:53:08.327Z,50.60
2019-06-04T09:54:30.995Z,50.00
2019-06-04T09:55:52.668Z,50.40
2019-06-04T09:57:14.364Z,50.80
2019-06-04T09:58:36.156Z,51.10
2019-06-04T09:59:57.811Z,51.10
2019-06-04T10:01:19.499Z,51.30
2019-06-04T10:02:43.033Z,51.10
2019-06-04T10:04:04.731Z,51.10
2019-06-04T10:05:26.225Z,51.30
2019-06-04T10:06:47.907Z,50.60
2019-06-04T10:08:12.199Z,51.00
2019-06-04T10:09:33.057Z,50.90
2019-06-04T10:10:54.452Z,50.00
2019-06-04T10:12:16.112Z,49.70
2019-06-04T10:13:37.903Z,50.10
2019-06-04T10:14:59.263Z,50.20
2019-06-04T10:16:20.664Z,50.80
2019-06-04T10:17:43.289Z,50.60
2019-06-04T10:19:04.930Z,50.60
2019-06-04T10:20:26.411Z,50.70
2019-06-04T10:21:47.821Z,51.10
2019-06-04T10:23:09.439Z,51.00
2019-06-04T10:24:31.767Z,50.40
2019-06-04T10:25:54.315Z,50.80
2019-06-04T10:27:16.205Z,51.60
2019-06-04T10:28:37.555Z,51.60
2019-06-04T10:29:59.033Z,51.30
2019-06-04T10:31:20.845Z,51.30
2019-06-04T10:32:42.163Z,51.30
2019-06-04T10:34:03.407Z,51.30
2019-06-04T10:35:25.127Z,51.10
2019-06-04T10:37:09.934Z,51.40
2019-06-04T10:38:26.007Z,51.40
2019-06-04T10:39:32.268Z,51.50
2019-06-04T10:40:54.448Z,51.70
2019-06-04T10:42:17.844Z,51.70
2019-06-04T10:43:39.170Z,51.70
2019-06-04T10:45:07.249Z,51.70
2019-06-04T10:46:23.759Z,51.70
2019-06-04T10:47:47.867Z,51.70
2019-06-04T10:49:09.710Z,51.80
2019-06-04T10:50:32.736Z,51.70
2019-06-04T10:51:55.608Z,51.70
2019-06-04T10:53:17.402Z,51.70
2019-06-04T10:54:39.174Z,51.70
2019-06-04T10:56:00.586Z,51.90
2019-06-04T10:57:22.348Z,52.00
2019-06-04T10:58:43.683Z,51.80
2019-06-04T11:00:10.504Z,51.60
2019-06-04T11:01:32.224Z,51.40
2019-06-04T11:02:54.200Z,51.60
2019-06-04T11:04:16.358Z,52.60
2019-06-04T11:05:37.652Z,51.70
2019-06-04T11:07:02.232Z,51.70
2019-06-04T11:08:22.523Z,52.80
2019-06-04T11:09:43.947Z,53.40
2019-06-04T11:11:05.592Z,52.00
2019-06-04T11:12:27.105Z,52.00
2019-06-04T11:13:48.885Z,51.70
2019-06-04T11:15:14.596Z,51.70
2019-06-04T11:16:35.123Z,51.80
2019-06-04T11:17:57.557Z,53.60
2019-06-04T11:19:19.311Z,53.40
2019-06-04T11:20:40.992Z,53.90
2019-06-04T11:22:02.601Z,54.50
2019-06-04T11:23:24.252Z,54.10
2019-06-04T11:24:46.093Z,53.70
2019-06-04T11:26:07.444Z,53.90
2019-06-04T11:27:29.031Z,53.10
2019-06-04T11:28:51.164Z,52.60
2019-06-04T11:30:13.489Z,52.90
2019-06-04T11:31:39.001Z,52.00
2019-06-04T11:32:58.108Z,52.30
2019-06-04T11:34:24.055Z,51.70
2019-06-04T11:35:43.237Z,51.40
2019-06-04T11:37:04.691Z,51.10
2019-06-04T11:38:25.931Z,50.70
2019-06-04T11:39:47.703Z,51.00
2019-06-04T11:41:09.140Z,50.70
2019-06-04T11:42:30.749Z,50.70
2019-06-04T11:43:52.611Z,50.70
2019-06-04T11:45:23.583Z,50.80
2019-06-04T11:46:37.427Z,51.20
2019-06-04T11:48:00.169Z,52.00
2019-06-04T11:49:22.075Z,50.70
2019-06-04T11:50:44.595Z,50.30
2019-06-04T11:52:06.171Z,50.40
2019-06-04T11:53:33.003Z,50.20
2019-06-04T11:54:52.211Z,50.30
2019-06-04T11:56:13.754Z,50.00
2019-06-04T11:57:35.906Z,50.20
2019-06-04T11:58:59.428Z,50.60
2019-06-04T12:00:33.252Z,50.40
2019-06-04T12:01:54.655Z,50.30
2019-06-04T12:03:16.497Z,49.80
2019-06-04T12:04:37.934Z,50.00
2019-06-04T12:06:00.914Z,49.90
2019-06-04T12:07:22.867Z,49.90
2019-06-04T12:08:44.333Z,50.00
2019-06-04T12:10:06.002Z,49.50
2019-06-04T12:11:27.779Z,49.40
2019-06-04T12:12:49.111Z,48.50
2019-06-04T12:14:10.858Z,48.90
2019-06-04T12:15:32.557Z,49.30
2019-06-04T12:16:55.715Z,49.70
2019-06-04T12:18:17.590Z,49.80
2019-06-04T12:19:39.184Z,50.00
2019-06-04T12:21:12.549Z,49.50
2019-06-04T12:22:24.417Z,49.70
2019-06-04T12:23:45.711Z,49.90
2019-06-04T12:25:07.583Z,49.50
2019-06-04T12:26:28.942Z,50.10
2019-06-04T12:27:50.653Z,49.50
2019-06-04T12:29:12.096Z,49.30
2019-06-04T12:30:34.781Z,48.90
2019-06-04T12:31:56.179Z,47.60
2019-06-04T12:33:17.608Z,46.90
2019-06-04T12:34:38.824Z,47.90
2019-06-04T12:36:00.911Z,48.30
2019-06-04T12:37:22.701Z,48.80
2019-06-04T12:38:44.280Z,48.30
2019-06-04T12:40:06.397Z,49.00
2019-06-04T12:41:28.011Z,48.80
2019-06-04T12:42:49.706Z,49.30
2019-06-04T12:44:14.667Z,50.00
2019-06-04T12:45:33.974Z,48.30
2019-06-04T12:46:59.017Z,47.30
2019-06-04T12:48:18.247Z,46.40
2019-06-04T12:49:49.622Z,46.90
2019-06-04T12:51:03.829Z,47.30
2019-06-04T12:52:25.321Z,47.60
2019-06-04T12:53:46.928Z,47.60
2019-06-04T12:55:08.328Z,49.60
2019-06-04T12:56:29.692Z,48.30
2019-06-04T12:57:50.919Z,49.00
2019-06-04T12:59:12.892Z,48.70
2019-06-04T13:00:34.975Z,48.40
2019-06-04T13:01:56.303Z,48.40
2019-06-04T13:03:17.804Z,48.70
2019-06-04T13:04:39.805Z,48.70
2019-06-04T13:06:02.822Z,48.70
2019-06-04T13:07:25.364Z,48.30
2019-06-04T13:08:46.971Z,48.10
2019-06-04T13:10:23.574Z,48.40
2019-06-04T13:11:32.167Z,48.70
2019-06-04T13:12:54.724Z,49.10
2019-06-04T13:14:16.327Z,48.60
2019-06-04T13:15:38.002Z,49.50
2019-06-04T13:17:00.469Z,47.50
2019-06-04T13:18:23.626Z,48.70
2019-06-04T13:19:44.926Z,48.60
2019-06-04T13:21:06.655Z,49.20
2019-06-04T13:22:28.108Z,50.70
2019-06-04T13:23:49.510Z,49.60
2019-06-04T13:25:11.128Z,49.80
2019-06-04T13:26:32.569Z,49.90
2019-06-04T13:27:54.205Z,49.80
2019-06-04T13:29:16.395Z,49.30
2019-06-04T13:30:46.935Z,49.40
2019-06-04T13:32:08.641Z,49.30
2019-06-04T13:33:30.199Z,49.20
2019-06-04T13:34:51.772Z,49.30
2019-06-04T13:36:13.319Z,47.10
2019-06-04T13:37:34.950Z,48.40
2019-06-04T13:38:56.335Z,48.90
2019-06-04T13:40:29.616Z,48.90
2019-06-04T13:41:41.056Z,49.00
2019-06-04T13:43:03.115Z,49.10
2019-06-04T13:44:24.744Z,49.20
2019-06-04T13:45:46.379Z,49.30
2019-06-04T13:47:09.709Z,49.50
2019-06-04T13:48:31.437Z,48.80
2019-06-04T13:49:53.436Z,49.20
2019-06-04T13:51:14.743Z,49.60
2019-06-04T13:52:37.753Z,50.90
2019-06-04T13:53:59.516Z,50.60
2019-06-04T13:55:21.096Z,49.50
2019-06-04T13:56:42.402Z,49.60
2019-06-04T13:58:04.869Z,49.90
2019-06-04T13:59:26.818Z,48.60
2019-06-04T14:00:48.507Z,49.10
2019-06-04T14:02:10.533Z,49.70
2019-06-04T14:03:32.435Z,49.80
2019-06-04T14:04:53.759Z,50.00
2019-06-04T14:06:15.412Z,50.00
2019-06-04T14:07:36.958Z,50.30
2019-06-04T14:08:58.355Z,50.30
2019-06-04T14:10:20.045Z,50.30
2019-06-04T14:11:42.120Z,50.50
2019-06-04T14:13:05.317Z,50.20
2019-06-04T14:14:33.325Z,50.40
2019-06-04T14:15:50.444Z,50.50
2019-06-04T14:17:12.254Z,50.80
2019-06-04T14:18:33.952Z,50.50
2019-06-04T14:19:55.687Z,50.30
2019-06-04T14:21:17.161Z,50.50
2019-06-04T14:22:38.524Z,51.10
2019-06-04T14:23:59.852Z,51.20
2019-06-04T14:25:26.618Z,51.30
2019-06-04T14:26:49.690Z,51.30
2019-06-04T14:28:12.893Z,51.20
2019-06-04T14:29:33.933Z,51.50
2019-06-04T14:30:55.501Z,51.60
2019-06-04T14:32:17.255Z,51.50
2019-06-04T14:33:38.729Z,51.40
2019-06-04T14:35:00.053Z,51.40
2019-06-04T14:36:23.334Z,51.50
2019-06-04T14:37:45.173Z,51.50
2019-06-04T14:39:10.028Z,51.80
2019-06-04T14:40:33.681Z,52.60
2019-06-04T14:41:55.768Z,52.80
2019-06-04T14:43:17.070Z,53.40
2019-06-04T14:44:38.324Z,53.50
2019-06-04T14:46:03.359Z,53.40
2019-06-04T14:47:22.847Z,53.40
2019-06-04T14:48:44.100Z,53.40
2019-06-04T14:50:11.560Z,53.30
2019-06-04T14:51:30.924Z,53.40
2019-06-04T14:52:52.365Z,53.40
2019-06-04T14:54:14.675Z,53.50
2019-06-04T14:55:36.068Z,53.50
2019-06-04T14:57:01.210Z,53.40
2019-06-04T14:58:20.757Z,53.40
2019-06-04T14:59:42.515Z,53.40
2019-06-04T15:01:04.024Z,53.30
2019-06-04T15:02:26.773Z,53.30
2019-06-04T15:03:48.091Z,53.50
2019-06-04T15:05:09.778Z,53.50
2019-06-04T15:06:31.371Z,53.60
2019-06-04T15:08:01.869Z,53.50
2019-06-04T15:09:16.997Z,53.50
2019-06-04T15:10:38.508Z,53.50
2019-06-04T15:11:59.857Z,53.50
2019-06-04T15:13:21.671Z,53.50
2019-06-04T15:14:43.283Z,53.70
2019-06-04T15:16:04.713Z,53.50
2019-06-04T15:17:26.240Z,53.50
2019-06-04T15:18:47.792Z,53.50
2019-06-04T15:20:10.184Z,53.40
2019-06-04T15:21:31.556Z,53.50
2019-06-04T15:22:53.088Z,53.60
2019-06-04T15:24:15.092Z,53.60
2019-06-04T15:25:37.609Z,53.50
2019-06-04T15:26:59.183Z,53.50
2019-06-04T15:28:21.591Z,53.50
2019-06-04T15:29:42.980Z,53.50
2019-06-04T15:31:04.730Z,53.60
2019-06-04T15:32:25.960Z,53.00
2019-06-04T15:33:47.191Z,53.60
2019-06-04T15:35:08.412Z,53.70
2019-06-04T15:36:29.603Z,53.60
2019-06-04T15:37:51.519Z,53.80
2019-06-04T15:39:12.707Z,53.70
2019-06-04T15:40:33.957Z,53.70
2019-06-04T15:41:55.497Z,53.50
2019-06-04T15:43:17.028Z,53.70
2019-06-04T15:44:38.663Z,53.70
2019-06-04T15:46:00.000Z,53.80
2019-06-04T15:47:21.672Z,53.70
2019-06-04T15:48:43.149Z,53.70
2019-06-04T15:50:06.223Z,53.80
2019-06-04T15:51:27.815Z,53.70
2019-06-04T15:52:53.028Z,53.70
2019-06-04T15:54:14.120Z,53.60
2019-06-04T15:55:35.730Z,53.70
2019-06-04T15:56:57.251Z,53.70
2019-06-04T15:58:21.086Z,53.60
2019-06-04T15:59:42.738Z,53.70
2019-06-04T16:01:04.890Z,53.60
2019-06-04T16:02:26.476Z,53.60
2019-06-04T16:03:50.317Z,53.60
2019-06-04T16:05:10.821Z,53.60
2019-06-04T16:06:32.362Z,53.70
2019-06-04T16:07:54.206Z,53.70
2019-06-04T16:09:16.365Z,53.60
2019-06-04T16:10:39.147Z,53.70
2019-06-04T16:12:09.021Z,53.50
2019-06-04T16:13:23.487Z,53.50
2019-06-04T16:14:47.389Z,53.50
2019-06-04T16:16:08.014Z,53.60
2019-06-04T16:17:31.803Z,53.70
2019-06-04T16:18:53.055Z,53.60
2019-06-04T16:20:17.897Z,53.70
2019-06-04T16:21:39.565Z,53.50
2019-06-04T16:23:01.123Z,53.50
2019-06-04T16:24:22.444Z,53.50
2019-06-04T16:25:47.861Z,54.20
2019-06-04T16:27:07.533Z,54.60
2019-06-04T16:28:28.938Z,54.70
2019-06-04T16:29:50.512Z,55.30
2019-06-04T16:31:12.050Z,54.20
2019-06-04T16:32:33.411Z,54.10
2019-06-04T16:33:55.085Z,54.10
2019-06-04T16:35:16.677Z,54.30
2019-06-04T16:36:37.899Z,54.10
2019-06-04T16:37:59.395Z,53.90
2019-06-04T16:39:20.770Z,54.00
2019-06-04T16:40:42.091Z,54.10
2019-06-04T16:42:03.682Z,53.90
2019-06-04T16:43:25.732Z,53.90
2019-06-04T16:44:47.413Z,53.80
2019-06-04T16:46:09.128Z,53.80
2019-06-04T16:47:30.415Z,53.70
2019-06-04T16:48:51.992Z,53.70
2019-06-04T16:50:13.629Z,53.90
2019-06-04T16:51:35.331Z,53.90
2019-06-04T16:52:56.683Z,53.90
2019-06-04T16:54:18.928Z,54.00
2019-06-04T16:55:40.909Z,54.00
2019-06-04T16:57:02.215Z,53.90
2019-06-04T16:58:24.239Z,54.00
2019-06-04T16:59:46.236Z,54.10
2019-06-04T17:01:07.997Z,54.10
2019-06-04T17:02:30.142Z,54.10
2019-06-04T17:03:52.169Z,54.10
2019-06-04T17:05:13.936Z,54.10
2019-06-04T17:06:35.623Z,54.10
2019-06-04T17:07:57.245Z,54.20
2019-06-04T17:09:19.795Z,54.10
2019-06-04T17:10:41.949Z,54.10
2019-06-04T17:12:03.881Z,54.20
2019-06-04T17:13:26.130Z,54.30
2019-06-04T17:14:47.783Z,54.20
2019-06-04T17:16:09.103Z,54.30
2019-06-04T17:17:30.824Z,54.30
2019-06-04T17:18:54.416Z,54.30
2019-06-04T17:20:15.624Z,54.30
2019-06-04T17:21:37.256Z,54.30
2019-06-04T17:22:58.830Z,54.20
2019-06-04T17:24:21.206Z,54.30
2019-06-04T17:25:42.992Z,54.40
2019-06-04T17:27:04.745Z,54.30
2019-06-04T17:28:26.284Z,54.40
2019-06-04T17:29:48.099Z,54.40
2019-06-04T17:31:09.696Z,54.60
2019-06-04T17:32:30.894Z,54.40
2019-06-04T17:33:52.055Z,54.40
2019-06-04T17:35:13.703Z,54.40